Terminal Aerodrome Forecast
Issued by NWS Cleveland, OH

Home | Current Version | Previous Version | Text Only | Print | Product List | Glossary On
Versions: 1 2 3 4 5 6 7 8 9 10 11 12 13 14 15 16 17 18 19 20 21 22
000
FTUS41 KCLE 272121 AAA
TAFTOL
TAF AMD
KTOL 272121Z 2721/2818 24005KT P6SM SCT025 OVC035
     FM280100 VRB03KT 5SM SHRA OVC020
     FM280400 04003KT 5SM -RA OVC012
     FM280600 02007KT 3SM -RA BR OVC007
     FM281700 02007KT P6SM BKN007=

USA.gov is the U.S. government's official web portal to all federal, state and local government web resources and services.